Terminal Aerodrome Forecast
Issued by NWS

Current Version | Previous Version | Text Only | Print | Product List | Glossary On
Versions: 1 2 3 4 5 6 7 8 9 10 11 12 13 14 15 16
000
FTUS42 KMLB 312343
TAFISM
TAF
KISM 312343Z 0100/0124 19005KT P6SM VCSH FEW035 SCT140 SCT250
      TEMPO 0100/0101 25015G25KT SCT025 BKN050
     FM010200 19004KT P6SM SCT100 BKN250
     FM011500 22014G20KT P6SM VCTS SCT030CB BKN120
      AMD NOT SKED 0102/0112=

USA.gov is the U.S. government's official web portal to all federal, state and local government web resources and services.